Terminal Aerodrome Forecast
Issued by NWS

Home | Current Version | Previous Version | Text Only | Print | Product List | Glossary On
Versions: 1 2 3 4 5 6 7 8 9 10 11 12 13 14 15
853
FTPA31 PHFO 242340
TAFHMK
TAF
PHMK 242340Z 2500/2524 04010G18KT P6SM SCT030
     FM250800 04006KT P6SM SCT030 SCT050
     FM252300 07010G16KT P6SM SCT030 SCT050=

USA.gov is the U.S. government's official web portal to all federal, state and local government web resources and services.